Time;durP1;ratioP1;P1;durP2;ratioP2;P2;SDS_P1;SDS_P2;PMS_P1;PMS_P2;Temp;Humidity;BMP_temperature;BMP_pressure;BME280_temperature;BME280_humidity;BME280_pressure;Samples;Min_cycle;Max_cycle;Signal;HPM_P1;HPM_P2
2021/03/28 00:01:08;;;;;;;7.80;4.23;;;5.50;63.40;6.70;101772.00;;;;5045495;28;20910;-80
2021/03/28 00:03:42;;;;;;;7.83;4.63;;;5.50;63.60;6.70;101786.00;;;;5029473;28;20456;-80
2021/03/28 00:06:27;;;;;;;7.50;4.60;;;5.50;63.60;6.70;101786.00;;;;5047160;28;20498;-79
2021/03/28 00:09:12;;;;;;;12.60;5.40;;;5.50;64.00;6.70;101781.00;;;;5028606;28;20467;-80
2021/03/28 00:12:00;;;;;;;8.30;4.77;;;5.50;63.00;6.70;101771.00;;;;5031820;28;20499;-81
2021/03/28 00:14:48;;;;;;;10.97;5.07;;;5.60;63.00;6.70;101788.00;;;;5048815;28;20558;-80
2021/03/28 00:17:37;;;;;;;11.87;5.03;;;5.50;63.10;6.80;101796.00;;;;5049178;28;20480;-82
2021/03/28 00:20:31;;;;;;;8.00;5.37;;;5.60;63.30;6.80;101792.00;;;;5033491;28;20484;-80
2021/03/28 00:23:15;;;;;;;6.93;4.60;;;5.60;63.00;6.90;101787.00;;;;5031805;28;20987;-80
2021/03/28 00:25:50;;;;;;;9.30;4.70;;;5.60;63.10;7.00;101769.00;;;;5033739;28;20484;-80
2021/03/28 00:28:38;;;;;;;7.37;4.67;;;5.60;63.10;7.00;101767.00;;;;5048950;28;20541;-79
2021/03/28 00:31:15;;;;;;;9.50;5.07;;;5.60;63.10;7.00;101782.00;;;;5049970;28;20507;-79
2021/03/28 00:33:47;;;;;;;10.50;7.30;;;5.70;63.60;217.30;159740.00;;;;5031263;28;20506;-79
2021/03/28 00:36:29;;;;;;;12.30;9.33;;;5.70;63.70;7.10;101807.00;;;;5044929;28;20463;-80
2021/03/28 00:38:57;;;;;;;16.93;13.83;;;5.70;63.00;7.00;101798.00;;;;5047291;28;21129;-80
2021/03/28 00:41:29;;;;;;;15.80;10.50;;;5.50;62.70;7.10;101783.00;;;;5046747;28;20468;-79
2021/03/28 00:44:05;;;;;;;13.50;8.20;;;5.40;63.10;7.10;101802.00;;;;5029779;28;20547;-79
2021/03/28 00:46:42;;;;;;;11.90;7.87;;;5.40;63.50;7.10;101800.00;;;;5045252;28;20534;-79
2021/03/28 00:49:21;;;;;;;19.37;13.17;;;5.50;64.20;7.10;101798.00;;;;5037093;28;20454;-80
2021/03/28 00:51:56;;;;;;;16.90;12.10;;;5.60;63.60;7.10;101794.00;;;;5031939;28;20483;-80
2021/03/28 00:54:38;;;;;;;16.67;12.03;;;5.60;63.40;7.20;101785.00;;;;5033683;28;20499;-78
2021/03/28 00:57:19;;;;;;;20.17;15.30;;;5.80;63.20;7.30;101787.00;;;;5042912;28;20456;-79
2021/03/28 00:59:56;;;;;;;13.10;8.80;;;5.70;63.20;7.30;101783.00;;;;5067980;28;20464;-80
2021/03/28 01:02:42;;;;;;;9.90;5.97;;;5.70;63.40;7.30;101785.00;;;;5057607;28;20515;-79
2021/03/28 01:05:33;;;;;;;9.07;4.73;;;5.70;63.20;7.30;101776.00;;;;5040914;28;20456;-79
2021/03/28 01:08:08;;;;;;;7.83;3.90;;;5.90;62.90;7.20;101780.00;;;;5037474;28;20448;-78
2021/03/28 01:11:08;;;;;;;18.20;10.50;;;5.90;62.50;7.30;101779.00;;;;5043296;28;20501;-79
2021/03/28 01:14:30;;;;;;;12.27;8.37;;;5.90;62.50;7.30;101771.00;;;;5052061;28;20943;-78
2021/03/28 01:17:39;;;;;;;23.07;12.40;;;5.90;62.60;7.30;101781.00;;;;5033126;28;21171;-81
2021/03/28 01:20:32;;;;;;;13.43;6.60;;;6.00;63.30;7.40;101778.00;;;;5033279;28;20985;-80
2021/03/28 01:23:35;;;;;;;13.00;7.50;;;5.90;63.00;7.50;101788.00;;;;5032176;28;20459;-80
2021/03/28 01:26:50;;;;;;;23.90;11.20;;;6.00;62.80;7.60;101783.00;;;;4994586;28;20540;-79
2021/03/28 01:29:28;;;;;;;14.40;7.33;;;6.10;62.80;7.50;101777.00;;;;5050374;28;20841;-80
2021/03/28 01:32:01;;;;;;;20.30;12.53;;;6.10;62.80;7.60;101792.00;;;;5032616;28;20471;-78
2021/03/28 01:34:34;;;;;;;17.50;13.10;;;6.10;62.80;7.50;101778.00;;;;5048449;28;21000;-79
2021/03/28 01:37:07;;;;;;;9.07;6.53;;;6.00;62.90;7.50;101775.00;;;;5033980;28;20519;-79
2021/03/28 01:39:47;;;;;;;11.63;8.20;;;6.00;63.10;52.70;159940.00;;;;5050931;28;20535;-79
2021/03/28 01:42:52;;;;;;;11.80;8.03;;;6.10;63.20;7.70;101774.00;;;;5048784;28;20479;-79
2021/03/28 01:45:31;;;;;;;14.67;6.90;;;6.20;62.80;7.70;67968.00;;;;5029241;28;20452;-80
2021/03/28 01:48:30;;;;;;;16.27;9.60;;;6.30;62.50;7.60;101798.00;;;;5033255;28;21009;-79
2021/03/28 01:51:40;;;;;;;8.80;5.60;;;6.30;62.20;7.60;67949.00;;;;5028349;28;20479;-79
2021/03/28 01:54:17;;;;;;;9.97;5.63;;;6.30;62.30;7.60;101782.00;;;;5036169;28;21030;-79
2021/03/28 01:56:54;;;;;;;12.97;5.03;;;6.40;61.90;7.60;101792.00;;;;5049219;28;20994;-79
2021/03/28 01:59:37;;;;;;;7.30;4.63;;;6.40;61.20;7.60;101784.00;;;;5032798;28;21366;-78
2021/03/28 02:02:23;;;;;;;10.17;4.83;;;6.50;60.90;7.70;101782.00;;;;5043805;28;20574;-80
2021/03/28 02:04:57;;;;;;;9.50;4.80;;;6.50;60.60;52.70;159976.00;;;;5045950;28;20941;-79
2021/03/28 02:07:53;;;;;;;8.30;5.13;;;6.50;60.40;7.70;101787.00;;;;5034177;28;20809;-79
2021/03/28 02:10:42;;;;;;;9.40;5.10;;;6.60;60.00;7.80;101784.00;;;;4998236;28;20877;-78
2021/03/28 02:13:21;;;;;;;8.80;4.80;;;6.60;59.80;7.80;101786.00;;;;5039135;28;20531;-79
2021/03/28 02:16:06;;;;;;;8.10;5.37;;;6.60;59.70;7.80;101769.00;;;;5042428;28;20502;-78
2021/03/28 02:18:52;;;;;;;9.63;5.43;;;6.60;59.60;7.80;101778.00;;;;5064648;28;20558;-80
2021/03/28 02:21:53;;;;;;;7.40;4.57;;;6.60;59.80;7.80;101781.00;;;;5036049;28;20492;-79
2021/03/28 02:24:27;;;;;;;8.37;4.53;;;6.60;60.00;7.80;101769.00;;;;5032345;28;20543;-79
2021/03/28 02:27:09;;;;;;;8.30;4.97;;;6.60;60.20;7.80;67985.00;;;;5048348;28;21511;-78
2021/03/28 02:29:49;;;;;;;8.50;4.77;;;6.60;60.00;217.30;160039.00;;;;5032069;28;20535;-78
2021/03/28 02:32:57;;;;;;;7.20;4.27;;;6.60;60.30;7.80;101761.00;;;;5049800;28;20467;-81
2021/03/28 02:36:19;;;;;;;9.43;5.33;;;6.60;60.70;7.90;101780.00;;;;5035978;28;20514;-79
2021/03/28 02:39:24;;;;;;;8.23;4.90;;;6.60;60.70;7.90;101793.00;;;;5029687;28;20480;-78
2021/03/28 02:42:22;;;;;;;10.23;5.37;;;6.60;60.50;7.90;101786.00;;;;5029929;28;20541;-78
2021/03/28 02:45:20;;;;;;;9.03;4.80;;;6.60;60.40;7.90;101783.00;;;;5048144;28;20484;-79
2021/03/28 02:48:34;;;;;;;9.63;5.40;;;6.70;60.50;217.30;160087.00;;;;5047423;28;21086;-80
2021/03/28 02:51:26;;;;;;;7.70;4.63;;;6.70;60.50;7.90;101788.00;;;;5031051;28;20546;-80
2021/03/28 02:54:16;;;;;;;10.20;5.80;;;6.60;60.50;7.90;101780.00;;;;5030034;28;20656;-79
2021/03/28 02:57:02;;;;;;;9.87;5.57;;;6.60;60.60;7.90;101760.00;;;;5047978;28;20987;-78
2021/03/28 02:59:51;;;;;;;10.53;5.43;;;6.60;60.90;7.80;101770.00;;;;5031491;28;21030;-79
2021/03/28 03:02:39;;;;;;;11.53;5.83;;;6.60;61.10;7.80;101772.00;;;;5030768;28;21001;-79
2021/03/28 03:05:24;;;;;;;6.60;4.93;;;6.60;61.20;7.80;101768.00;;;;5031680;28;20456;-78
2021/03/28 03:08:11;;;;;;;9.50;5.20;;;6.60;61.80;7.80;101779.00;;;;5047275;28;20482;-78
2021/03/28 03:11:12;;;;;;;6.60;4.63;;;6.60;61.90;7.90;101778.00;;;;5046871;28;20984;-79
2021/03/28 03:13:55;;;;;;;7.40;5.40;;;6.60;62.10;7.80;101778.00;;;;5032859;28;20485;-78
2021/03/28 03:16:29;;;;;;;10.73;6.27;;;6.60;61.70;7.80;101785.00;;;;5032681;28;20610;-80
2021/03/28 03:19:54;;;;;;;10.90;5.60;;;6.60;61.40;7.90;101784.00;;;;5030915;28;21337;-79
2021/03/28 03:23:05;;;;;;;8.70;5.20;;;6.70;61.20;7.90;101789.00;;;;5008794;28;20942;-79
2021/03/28 03:26:08;;;;;;;9.30;5.43;;;6.70;60.70;7.90;101786.00;;;;5067509;28;20463;-80
2021/03/28 03:29:17;;;;;;;7.73;5.23;;;6.70;60.60;8.00;101778.00;;;;5055279;28;20473;-80
2021/03/28 03:32:29;;;;;;;9.10;4.70;;;6.80;60.50;8.00;101777.00;;;;5059017;28;20566;-78
2021/03/28 03:35:13;;;;;;;11.93;5.43;;;6.80;60.30;8.00;101776.00;;;;5034146;28;20476;-79
2021/03/28 03:38:23;;;;;;;11.30;5.57;;;6.80;60.10;8.00;101781.00;;;;5047131;28;20471;-81
2021/03/28 03:41:22;;;;;;;10.53;5.13;;;6.80;59.80;8.10;101770.00;;;;5074123;28;20499;-81
2021/03/28 03:44:10;;;;;;;7.27;4.87;;;6.80;59.70;8.10;101773.00;;;;5056514;28;20428;-80
2021/03/28 03:47:10;;;;;;;7.80;5.73;;;6.90;59.70;8.10;101774.00;;;;5075626;28;20444;-79
2021/03/28 03:50:10;;;;;;;11.90;6.10;;;6.90;59.40;8.10;101775.00;;;;5044421;28;20484;-78
2021/03/28 03:52:59;;;;;;;9.50;5.03;;;6.90;58.70;8.10;101773.00;;;;5038344;28;20518;-80
2021/03/28 03:55:38;;;;;;;12.67;6.23;;;6.90;59.10;217.30;160151.00;;;;5042150;28;20526;-79
2021/03/28 03:58:19;;;;;;;9.50;5.83;;;6.90;58.80;8.10;101780.00;;;;5058415;28;20478;-79
2021/03/28 04:00:59;;;;;;;12.30;5.53;;;6.90;58.70;8.10;101766.00;;;;5058318;28;20483;-79
2021/03/28 04:03:34;;;;;;;10.00;5.93;;;6.90;58.60;8.20;101786.00;;;;5047699;28;20474;-80
2021/03/28 04:06:40;;;;;;;12.83;6.47;;;6.90;58.20;8.20;101780.00;;;;5039052;28;20886;-78
2021/03/28 04:09:20;;;;;;;9.93;6.03;;;7.00;58.10;8.20;101777.00;;;;5048068;28;21007;-78
2021/03/28 04:12:04;;;;;;;12.20;6.57;;;7.00;58.10;8.20;101775.00;;;;5048009;28;20503;-79
2021/03/28 04:14:59;;;;;;;8.67;5.73;;;7.00;57.50;8.20;101783.00;;;;5038765;28;20877;-80
2021/03/28 04:18:02;;;;;;;9.70;6.27;;;7.00;57.30;8.30;101771.00;;;;5029871;28;20452;-79
2021/03/28 04:20:44;;;;;;;12.20;5.50;;;7.00;57.10;8.30;101779.00;;;;5056866;28;20482;-80
2021/03/28 04:23:30;;;;;;;11.67;5.50;;;7.10;57.30;8.30;101782.00;;;;5051653;28;20825;-80
2021/03/28 04:26:22;;;;;;;10.90;5.40;;;7.10;57.30;8.40;101782.00;;;;5048267;28;20452;-78
2021/03/28 04:28:56;;;;;;;12.97;6.17;;;7.10;57.20;8.40;101784.00;;;;5051890;28;20687;-80
2021/03/28 04:32:20;;;;;;;11.70;6.47;;;7.10;57.40;8.50;101788.00;;;;5042551;28;20502;-81
2021/03/28 04:35:24;;;;;;;10.03;5.70;;;7.10;57.10;8.40;101781.00;;;;5050999;28;20459;-79
2021/03/28 04:38:08;;;;;;;8.63;5.33;;;7.10;57.10;8.40;101782.00;;;;5053448;28;20506;-78
2021/03/28 04:40:59;;;;;;;8.87;5.00;;;7.10;57.10;8.40;101790.00;;;;5031200;28;20815;-78
2021/03/28 04:44:06;;;;;;;13.07;5.63;;;7.20;56.90;8.40;101793.00;;;;5046202;28;20475;-80
2021/03/28 04:47:14;;;;;;;9.00;5.10;;;7.20;56.50;8.40;101786.00;;;;5028539;28;20451;-79
2021/03/28 04:50:00;;;;;;;9.67;5.60;;;7.20;56.40;8.30;101783.00;;;;5030011;28;20541;-80
2021/03/28 04:53:29;;;;;;;9.43;5.80;;;7.20;56.00;8.30;101781.00;;;;5027781;28;20524;-78
2021/03/28 04:57:01;;;;;;;11.53;6.13;;;7.20;55.90;8.30;101789.00;;;;5036593;28;20797;-79
2021/03/28 04:59:59;;;;;;;9.60;6.30;;;7.20;56.30;8.30;101787.00;;;;5038388;28;20467;-79
2021/03/28 05:02:49;;;;;;;9.90;7.07;;;7.20;56.50;8.30;101790.00;;;;5026388;28;20483;-77
2021/03/28 05:05:44;;;;;;;11.40;6.13;;;7.20;56.80;8.30;101792.00;;;;5044907;28;20517;-78
2021/03/28 05:08:56;;;;;;;8.30;6.03;;;7.20;56.90;8.30;101789.00;;;;5045566;28;20448;-79
2021/03/28 05:12:04;;;;;;;11.90;6.67;;;7.20;57.10;8.30;101811.00;;;;5028366;28;20591;-77
2021/03/28 05:15:14;;;;;;;13.57;6.10;;;7.20;57.40;8.40;101807.00;;;;5035473;28;20554;-77
2021/03/28 05:18:32;;;;;;;9.47;6.10;;;7.20;57.40;8.40;101806.00;;;;5015917;28;20452;-78
2021/03/28 05:21:29;;;;;;;10.33;6.50;;;7.20;56.90;8.40;68112.00;;;;5027660;28;21098;-77
2021/03/28 05:24:54;;;;;;;14.00;6.50;;;7.20;56.70;8.40;101798.00;;;;5045368;28;20503;-77
2021/03/28 05:28:00;;;;;;;13.00;6.70;;;7.20;56.40;8.30;101801.00;;;;5038489;28;21674;-78
2021/03/28 05:31:00;;;;;;;8.83;7.03;;;7.20;56.30;8.20;101819.00;;;;5028055;28;20531;-79
2021/03/28 05:34:40;;;;;;;10.73;6.20;;;7.10;56.50;8.20;101814.00;;;;5009571;28;20460;-80
2021/03/28 05:37:41;;;;;;;8.43;6.40;;;7.10;56.40;8.20;101809.00;;;;4945717;29;20452;-78
2021/03/28 05:40:37;;;;;;;12.43;6.20;;;7.10;56.70;8.30;101790.00;;;;5028826;28;20455;-80
2021/03/28 05:43:59;;;;;;;10.27;6.27;;;7.10;56.90;8.30;101817.00;;;;5044620;28;20879;-78
2021/03/28 05:46:57;;;;;;;12.63;6.67;;;7.10;57.10;8.30;101813.00;;;;5033383;28;21034;-79
2021/03/28 05:49:44;;;;;;;11.00;6.60;;;7.10;57.90;8.40;101826.00;;;;5053076;28;20543;-81
2021/03/28 05:52:49;;;;;;;10.67;6.60;;;7.20;57.30;8.50;101816.00;;;;5055652;28;20553;-80
2021/03/28 05:56:04;;;;;;;7.90;5.83;;;7.20;57.00;8.50;101796.00;;;;5045643;28;20503;-81
2021/03/28 05:59:08;;;;;;;11.40;6.60;;;7.30;56.40;8.60;101791.00;;;;5053818;28;20456;-78
2021/03/28 06:02:01;;;;;;;13.07;6.10;;;7.30;55.90;8.60;101804.00;;;;5058536;28;20463;-78
2021/03/28 06:05:48;;;;;;;11.20;6.73;;;7.40;55.20;8.60;101800.00;;;;5039627;28;21077;-76
2021/03/28 06:09:28;;;;;;;10.20;6.30;;;7.40;55.20;8.80;101815.00;;;;5048247;28;20456;-77
2021/03/28 06:12:52;;;;;;;13.63;6.33;;;7.50;54.90;8.90;101830.00;;;;5046391;28;20514;-77
2021/03/28 06:15:59;;;;;;;12.50;5.90;;;7.50;54.40;9.00;101832.00;;;;5049972;28;21069;-79
2021/03/28 06:19:13;;;;;;;10.63;6.70;;;7.60;54.00;9.10;101833.00;;;;5032265;28;20534;-79
2021/03/28 06:22:10;;;;;;;11.93;6.87;;;7.70;53.50;9.10;101814.00;;;;5047856;28;20920;-78
2021/03/28 06:25:19;;;;;;;9.57;6.30;;;7.70;53.30;9.10;101831.00;;;;5031143;28;20944;-78
2021/03/28 06:28:31;;;;;;;9.90;5.43;;;7.70;53.10;8.90;101841.00;;;;5031592;28;20456;-78
2021/03/28 06:32:02;;;;;;;13.43;6.63;;;7.60;53.20;8.80;101870.00;;;;5032468;28;20498;-80
2021/03/28 06:35:39;;;;;;;11.97;6.73;;;7.50;53.40;8.60;101849.00;;;;5005408;28;20581;-78
2021/03/28 06:39:13;;;;;;;10.10;6.53;;;7.40;54.00;8.70;101835.00;;;;5047705;28;20448;-78
2021/03/28 06:42:03;;;;;;;12.27;5.53;;;7.50;54.40;8.90;101846.00;;;;4990189;28;21222;-79
2021/03/28 06:45:10;;;;;;;10.23;6.43;;;7.60;53.70;217.30;160642.00;;;;5050729;28;20837;-81
2021/03/28 06:48:23;;;;;;;10.10;6.40;;;7.70;52.30;9.30;101838.00;;;;5032660;28;20459;-79
2021/03/28 06:51:21;;;;;;;12.00;5.97;;;7.90;51.60;9.40;101846.00;;;;5037656;28;20510;-77
2021/03/28 06:54:43;;;;;;;15.37;6.47;;;8.00;49.60;9.50;101846.00;;;;5039891;28;20448;-78
2021/03/28 06:57:55;;;;;;;9.87;5.57;;;8.10;49.70;9.30;101874.00;;;;5054133;28;20506;-80
2021/03/28 07:01:19;;;;;;;9.10;5.83;;;8.00;49.60;9.10;101860.00;;;;5035163;28;20456;-78
2021/03/28 07:04:25;;;;;;;11.67;6.00;;;7.90;49.60;9.00;101874.00;;;;5026763;28;20459;-77
2021/03/28 07:07:08;;;;;;;12.93;6.50;;;7.90;49.60;9.10;101878.00;;;;5035417;28;20551;-79
2021/03/28 07:10:11;;;;;;;15.07;6.17;;;7.90;49.60;9.30;101848.00;;;;5034781;28;20459;-80
2021/03/28 07:13:17;;;;;;;10.00;5.60;;;8.10;49.00;9.40;101872.00;;;;5050525;28;20487;-80
2021/03/28 07:16:15;;;;;;;14.60;6.40;;;8.20;47.80;9.40;101885.00;;;;5032656;28;20478;-78
2021/03/28 07:19:44;;;;;;;10.30;7.00;;;8.30;46.70;9.50;101889.00;;;;5035274;28;20578;-78
2021/03/28 07:22:44;;;;;;;11.23;8.20;;;8.40;46.10;9.60;68386.00;;;;5011600;28;20579;-78
2021/03/28 07:25:51;;;;;;;12.20;8.10;;;8.50;44.90;9.60;101887.00;;;;5034291;28;20474;-77
2021/03/28 07:29:11;;;;;;;13.80;9.47;;;8.50;44.00;9.60;101884.00;;;;5043444;28;20469;-78
2021/03/28 07:32:34;;;;;;;16.30;8.60;;;8.60;42.30;9.70;101888.00;;;;5053882;28;20746;-78
2021/03/28 07:35:53;;;;;;;14.03;7.87;;;8.60;42.70;9.80;101890.00;;;;5016631;28;20507;-77
2021/03/28 07:39:17;;;;;;;11.27;8.37;;;8.70;41.00;10.00;101883.00;;;;5040297;28;21414;-80
2021/03/28 07:42:39;;;;;;;15.70;8.67;;;8.80;40.60;10.10;101888.00;;;;5036840;28;20498;-80
2021/03/28 07:46:01;;;;;;;10.77;7.30;;;9.00;39.90;10.10;101890.00;;;;5035940;28;20447;-79
2021/03/28 07:49:33;;;;;;;11.13;8.13;;;9.00;37.60;10.20;101886.00;;;;5036035;28;20449;-78
2021/03/28 07:52:45;;;;;;;11.20;6.87;;;9.20;37.00;10.40;101895.00;;;;5052393;28;20549;-79
2021/03/28 07:55:26;;;;;;;11.57;6.70;;;9.30;36.00;10.50;101886.00;;;;5037201;28;20528;-78
2021/03/28 07:58:31;;;;;;;10.43;7.70;;;9.40;34.60;10.50;101894.00;;;;5035979;28;20452;-78
2021/03/28 08:01:53;;;;;;;13.53;7.10;;;9.50;32.50;10.60;101882.00;;;;5035001;28;20896;-77
2021/03/28 08:05:14;;;;;;;14.07;6.60;;;9.60;31.30;10.70;101887.00;;;;5051546;28;20447;-77
2021/03/28 08:08:12;;;;;;;9.80;6.80;;;9.70;30.70;10.80;101883.00;;;;5068620;28;20481;-76
2021/03/28 08:11:14;;;;;;;14.23;8.03;;;9.70;30.50;10.80;101879.00;;;;5052761;28;20481;-77
2021/03/28 08:14:27;;;;;;;13.07;7.07;;;9.90;29.80;11.00;101878.00;;;;5012681;28;20490;-78
2021/03/28 08:17:41;;;;;;;11.37;7.37;;;10.00;29.10;11.20;101879.00;;;;4973140;28;20487;-78
2021/03/28 08:20:52;;;;;;;12.03;7.90;;;10.20;28.70;11.50;101872.00;;;;4983130;28;20454;-78
2021/03/28 08:24:20;;;;;;;15.07;7.60;;;10.40;27.60;11.80;101873.00;;;;4969366;28;20470;-78
2021/03/28 08:27:23;;;;;;;11.60;6.50;;;10.60;25.70;11.90;101872.00;;;;5065968;28;20457;-78
2021/03/28 08:30:31;;;;;;;13.00;7.17;;;10.90;23.20;12.10;101875.00;;;;5065118;28;20450;-77
2021/03/28 08:33:24;;;;;;;13.07;7.00;;;11.00;22.50;12.20;101856.00;;;;5065136;28;20490;-80
2021/03/28 08:36:12;;;;;;;13.53;7.10;;;11.20;21.30;12.30;101847.00;;;;5050963;28;20554;-78
2021/03/28 08:39:20;;;;;;;11.00;5.87;;;11.30;21.00;12.40;101843.00;;;;5051150;28;20459;-77
2021/03/28 08:45:32;;;;;;;13.90;6.63;;;11.40;18.80;12.30;101851.00;;;;5118298;27;20667;-78
2021/03/28 08:48:30;;;;;;;13.60;6.13;;;11.40;18.90;12.30;101871.00;;;;5084882;28;20486;-77
2021/03/28 08:51:41;;;;;;;10.63;5.83;;;11.40;18.40;12.20;101859.00;;;;5081197;28;20842;-78
2021/03/28 08:54:19;;;;;;;10.40;5.77;;;11.30;18.20;12.30;101865.00;;;;5074265;28;20474;-78
2021/03/28 08:57:16;;;;;;;8.93;5.47;;;11.40;18.70;12.40;101878.00;;;;5076041;28;20490;-78
2021/03/28 09:00:13;;;;;;;14.20;6.63;;;11.50;17.40;12.40;101870.00;;;;5070699;28;21012;-80
2021/03/28 09:03:21;;;;;;;11.03;6.23;;;11.50;17.60;12.40;101876.00;;;;5072013;28;20502;-79
2021/03/28 09:05:57;;;;;;;10.17;6.43;;;11.50;17.30;12.40;101864.00;;;;5073489;28;20676;-81
2021/03/28 09:08:34;;;;;;;14.30;6.73;;;11.60;17.00;12.50;101870.00;;;;5078197;28;20930;-79
2021/03/28 09:11:48;;;;;;;12.00;6.33;;;11.70;16.10;12.60;101864.00;;;;5093530;28;20470;-79
2021/03/28 09:14:33;;;;;;;15.80;6.87;;;11.80;16.20;12.60;101861.00;;;;5080983;28;20526;-79
2021/03/28 09:17:12;;;;;;;11.27;6.03;;;11.80;15.50;12.80;101865.00;;;;5078457;28;20455;-79
2021/03/28 09:20:12;;;;;;;12.90;5.90;;;12.00;15.80;12.90;101860.00;;;;5073649;28;20450;-79
2021/03/28 09:22:52;;;;;;;11.00;5.53;;;12.10;14.30;13.00;101859.00;;;;5061161;28;20868;-80
2021/03/28 09:25:40;;;;;;;8.57;4.93;;;12.20;14.20;13.00;101863.00;;;;5066728;28;20459;-79
2021/03/28 09:28:25;;;;;;;12.37;5.10;;;12.30;13.70;13.00;101860.00;;;;5067152;28;20486;-79
2021/03/28 09:30:59;;;;;;;11.50;6.67;;;12.30;13.50;13.00;101855.00;;;;5064718;28;20469;-80
2021/03/28 09:33:44;;;;;;;12.80;5.40;;;12.30;13.20;13.00;101851.00;;;;5082575;28;20558;-79
2021/03/28 09:36:33;;;;;;;7.83;4.40;;;12.30;12.80;13.20;101839.00;;;;5063761;28;20447;-79
2021/03/28 09:39:49;;;;;;;10.70;4.97;;;12.40;13.50;13.30;101848.00;;;;5066901;28;20457;-78
2021/03/28 09:42:55;;;;;;;10.80;5.00;;;12.60;11.10;13.40;101860.00;;;;5011303;28;20528;-80
2021/03/28 09:46:18;;;;;;;10.10;5.57;;;12.60;10.70;13.60;101855.00;;;;5063213;28;20450;-80
2021/03/28 09:49:36;;;;;;;10.47;5.33;;;12.80;10.90;217.30;162606.00;;;;5071853;28;20462;-80
2021/03/28 09:52:36;;;;;;;11.57;5.83;;;13.00;8.20;13.60;101857.00;;;;5069897;28;20499;-78
2021/03/28 09:55:43;;;;;;;10.87;5.30;;;12.90;8.20;13.60;101861.00;;;;5078204;28;20478;-78
2021/03/28 09:58:47;;;;;;;10.27;5.97;;;12.90;8.10;13.70;101860.00;;;;5072027;28;20423;-78
2021/03/28 10:01:39;;;;;;;13.83;5.40;;;12.90;8.20;13.80;101852.00;;;;5072342;28;20468;-77
2021/03/28 10:04:21;;;;;;;7.77;4.17;;;13.10;7.80;13.90;101854.00;;;;5088734;28;20526;-78
2021/03/28 10:06:58;;;;;;;10.10;3.87;;;13.10;7.20;13.90;101853.00;;;;5067710;28;20459;-78
2021/03/28 10:10:03;;;;;;;8.17;4.57;;;13.10;7.60;13.90;101847.00;;;;5072894;28;20472;-78
2021/03/28 10:12:42;;;;;;;9.13;4.13;;;13.10;8.40;14.10;101847.00;;;;5064331;28;20559;-77
2021/03/28 10:15:17;;;;;;;7.00;4.83;;;13.40;7.70;14.40;101841.00;;;;5073368;28;20456;-77
2021/03/28 10:18:04;;;;;;;11.27;5.03;;;13.60;7.10;14.70;101834.00;;;;5073169;28;20435;-80
2021/03/28 10:21:08;;;;;;;9.37;4.43;;;13.70;5.70;15.10;101840.00;;;;5084876;28;20451;-79
2021/03/28 10:23:49;;;;;;;7.17;4.50;;;13.90;3.10;15.20;101856.00;;;;5067952;28;20525;-80
2021/03/28 10:26:48;;;;;;;8.13;4.77;;;14.00;3.10;15.60;101841.00;;;;5060551;28;20447;-80
2021/03/28 10:29:43;;;;;;;7.57;4.20;;;14.40;2.90;15.70;101849.00;;;;5055764;28;20448;-78
2021/03/28 10:32:29;;;;;;;10.47;4.37;;;14.50;1.80;16.00;101845.00;;;;5072540;28;20527;-79
2021/03/28 10:35:27;;;;;;;8.80;5.10;;;14.60;2.40;15.90;101858.00;;;;5053050;28;20452;-79
2021/03/28 10:38:34;;;;;;;9.13;4.33;;;14.40;2.40;15.80;101859.00;;;;5054509;28;20554;-79
2021/03/28 10:41:31;;;;;;;8.47;4.33;;;14.40;3.50;15.70;101837.00;;;;5057202;28;20459;-78
2021/03/28 10:44:30;;;;;;;11.03;4.90;;;14.30;3.40;15.40;101843.00;;;;5053741;28;20475;-79
2021/03/28 10:47:40;;;;;;;8.33;4.50;;;14.10;3.20;15.60;101836.00;;;;5053366;28;20547;-79
2021/03/28 10:50:58;;;;;;;8.00;5.00;;;14.40;2.20;15.80;101840.00;;;;5053641;28;20452;-79
2021/03/28 10:53:56;;;;;;;6.60;4.67;;;14.50;1.10;16.40;101837.00;;;;5049362;28;20451;-79
2021/03/28 10:57:28;;;;;;;7.80;4.00;;;14.90;1.00;16.40;101821.00;;;;5054433;28;20723;-79
2021/03/28 11:00:35;;;;;;;6.50;3.17;;;15.10;1.00;15.90;101823.00;;;;5047532;28;20865;-81
2021/03/28 11:03:51;;;;;;;4.63;2.37;;;14.90;1.00;16.10;101826.00;;;;5049158;28;20435;-78
2021/03/28 11:06:51;;;;;;;3.93;2.27;;;15.00;1.00;16.00;101818.00;;;;5038375;28;20474;-79
2021/03/28 11:10:17;;;;;;;7.17;3.20;;;15.10;1.00;16.10;101796.00;;;;5046620;28;20539;-78
2021/03/28 11:13:18;;;;;;;7.03;2.83;;;15.20;1.00;16.90;101807.00;;;;5048236;28;20494;-79
2021/03/28 11:16:04;;;;;;;8.47;2.50;;;15.80;1.00;17.00;101799.00;;;;5049246;28;20454;-81
2021/03/28 11:19:15;;;;;;;7.70;3.13;;;15.80;1.00;17.60;101790.00;;;;5051989;28;20447;-80
2021/03/28 11:22:05;;;;;;;6.43;2.80;;;16.30;1.00;17.30;101797.00;;;;5054166;28;20969;-81
2021/03/28 11:25:06;;;;;;;8.60;2.17;;;16.00;1.00;16.90;101794.00;;;;5052088;28;20491;-79
2021/03/28 11:28:29;;;;;;;4.47;2.07;;;15.80;1.00;16.80;101784.00;;;;5046812;28;20463;-79
2021/03/28 11:31:29;;;;;;;3.50;1.40;;;15.70;1.00;16.70;101781.00;;;;5050769;28;20511;-81
2021/03/28 11:34:01;;;;;;;6.33;2.60;;;15.50;1.00;16.60;101796.00;;;;5055603;28;20460;-77
2021/03/28 11:36:32;;;;;;;5.00;2.03;;;15.30;1.00;16.60;101782.00;;;;5070001;28;20432;-79
2021/03/28 11:39:16;;;;;;;5.23;2.53;;;15.30;1.00;16.80;101778.00;;;;5068779;28;20800;-79
2021/03/28 11:41:52;;;;;;;4.60;2.03;;;15.40;1.00;16.90;101788.00;;;;5062635;28;20484;-81
2021/03/28 11:44:30;;;;;;;5.80;2.17;;;15.40;1.00;16.80;101774.00;;;;5063938;28;20483;-79
2021/03/28 11:47:30;;;;;;;4.50;2.73;;;15.50;1.00;16.60;101791.00;;;;5062881;28;20471;-79
2021/03/28 11:50:18;;;;;;;3.93;2.47;;;15.50;1.00;16.80;101784.00;;;;5058794;28;20523;-78
2021/03/28 11:53:04;;;;;;;5.40;2.27;;;15.40;1.00;16.90;101771.00;;;;5060485;28;20471;-79
2021/03/28 11:55:48;;;;;;;5.50;2.43;;;15.60;1.00;16.70;101785.00;;;;5061581;28;20482;-80
2021/03/28 11:58:54;;;;;;;4.50;2.10;;;15.60;1.00;17.00;101787.00;;;;5047636;28;20455;-79
2021/03/28 12:02:01;;;;;;;4.13;2.03;;;15.60;1.00;17.40;101780.00;;;;5076229;28;20509;-80
2021/03/28 12:04:33;;;;;;;6.50;2.70;;;15.90;1.00;17.50;101776.00;;;;5040706;28;20486;-79
2021/03/28 12:07:26;;;;;;;9.00;2.80;;;16.10;1.00;17.60;101784.00;;;;5071027;28;20526;-78
2021/03/28 12:10:16;;;;;;;7.07;2.43;;;16.10;1.00;17.70;101791.00;;;;5045897;28;20487;-77
2021/03/28 12:13:06;;;;;;;6.67;2.40;;;16.30;1.00;17.60;101772.00;;;;5040853;28;20479;-78
2021/03/28 12:15:59;;;;;;;6.00;2.87;;;16.20;1.00;17.40;101773.00;;;;5048198;28;20444;-81
2021/03/28 12:18:44;;;;;;;6.50;3.07;;;16.10;1.00;18.00;101755.00;;;;5057664;28;20501;-81
2021/03/28 12:21:54;;;;;;;4.90;3.13;;;16.50;1.00;17.90;101772.00;;;;5054749;28;20559;-80
2021/03/28 12:24:28;;;;;;;6.73;3.17;;;16.70;1.00;17.30;101773.00;;;;5061369;28;20472;-80
2021/03/28 12:27:04;;;;;;;6.27;2.63;;;16.30;1.00;16.70;101773.00;;;;5058861;28;20454;-79
2021/03/28 12:29:44;;;;;;;3.50;2.53;;;15.80;1.00;17.20;101768.00;;;;5052985;28;20481;-79
2021/03/28 12:33:05;;;;;;;6.57;2.70;;;16.10;1.00;17.60;101761.00;;;;5058683;28;20467;-81
2021/03/28 12:36:04;;;;;;;6.00;2.23;;;16.40;1.00;17.60;101765.00;;;;5068089;28;20504;-79
2021/03/28 12:38:53;;;;;;;6.40;2.40;;;16.60;1.00;17.50;101761.00;;;;5062611;28;20490;-79
2021/03/28 12:41:37;;;;;;;4.07;2.40;;;16.50;1.00;17.30;101759.00;;;;5059148;28;20487;-80
2021/03/28 12:44:32;;;;;;;8.47;2.67;;;16.50;1.00;17.30;101754.00;;;;5068421;28;20517;-80
2021/03/28 12:47:08;;;;;;;5.90;2.63;;;16.40;1.00;17.30;101737.00;;;;5049753;28;20464;-79
2021/03/28 12:49:46;;;;;;;4.17;2.23;;;16.50;1.00;17.40;101746.00;;;;5055682;28;21009;-80
2021/03/28 12:52:38;;;;;;;5.40;2.20;;;16.40;1.00;17.50;101728.00;;;;5056526;28;20479;-80
2021/03/28 12:55:35;;;;;;;7.77;3.27;;;16.50;1.00;17.60;101736.00;;;;5061508;28;20638;-79
2021/03/28 12:58:42;;;;;;;4.83;2.50;;;16.70;1.00;17.80;101739.00;;;;5062027;28;20449;-79
2021/03/28 13:01:29;;;;;;;4.50;2.37;;;16.90;1.00;17.80;101743.00;;;;5056879;28;20491;-81
2021/03/28 13:04:11;;;;;;;4.50;2.50;;;16.80;1.00;17.70;101732.00;;;;5061636;28;20483;-79
2021/03/28 13:06:45;;;;;;;6.10;2.67;;;16.90;1.00;17.50;101737.00;;;;5051727;28;20507;-79